Station: Territory Grape Farm

  Atmospheric Gas Attenuation - ITU Rec 676-11   --------------- db/100km ---------------
Date Time Temp RH % AH g/m3 Dew Point Wind Direction Speed kph Gust kph Barometer mB Rainfall Since 9am 24GHz 47GHz 76GHz 122GHz 134GHz 241GHz
07 08:10 8.4 56 4.75 0.3 7 9 1013.1 0 11.6 21.3 27.2 70.7 54.7 184.5
07 08:00 7.8 58 4.74 0.1 2 7 1014.7 0 11.6 21.5 27.4 71.3 55.1 185.7
07 07:50 7.2 60 4.71 -0.1 0 0 1013.1 0 11.5 21.5 27.5 71.4 55.0 185.6
07 07:40 6.7 63 4.79 0.1 0 0 1013.1 0 11.7 21.8 27.9 72.7 56.4 190.2
07 07:30 5.3 64 4.44 -0.9 4 4 1014.1 0 11.0 21.6 27.1 70.5 53.0 178.3
07 07:20 4.8 67 4.5 -0.8 4 4 1013.1 0 11.2 21.8 27.5 71.4 54.1 181.9
07 07:10 4.9 67 4.53 -0.7 2 2 1013.1 0 11.2 21.8 27.6 71.6 54.4 183.0
07 07:00 4.8 65 4.36 -1.2 2 4 1013.9 0 10.9 21.6 27.0 70.1 52.4 175.8
07 06:50 4.9 64 4.32 -1.2 4 4 1013.1 0 10.8 21.5 26.8 69.5 51.8 173.7
07 06:40 5 64 4.35 -1.3 6 6 1013.1 0 10.8 21.5 26.8 69.7 52.1 174.8
07 06:30 5.1 64 4.38 -1.1 7 9 1013.4 0 10.9 21.5 26.9 70.0 52.4 175.9
07 06:20 5.1 63 4.31 -1.4 7 7 1013.1 0 10.7 21.4 26.7 69.2 51.5 172.8
07 06:10 5.4 62 4.33 -1.3 7 7 1013.1 0 10.8 21.4 26.6 69.2 51.6 173.1
07 06:00 5.8 62 4.44 -0.9 6 7 1013 0 11.0 21.4 26.9 69.9 52.7 177.0
07 05:50 6 61 4.43 -0.8 6 6 1013.1 0 11.0 21.4 26.8 69.7 52.4 176.1
07 05:40 5.8 61 4.37 -1.2 4 4 1013.1 0 10.9 21.3 26.6 69.2 51.8 173.9
07 05:30 6.1 60 4.39 -1.1 6 7 1012.7 0 10.9 21.3 26.6 69.1 51.8 174.1
07 05:20 6.7 59 4.49 -0.8 7 7 1013.1 0 11.1 21.3 26.8 69.6 52.7 177.2
07 05:10 7.3 58 4.58 -0.4 9 9 1013.1 0 11.3 21.3 26.9 70.0 53.4 179.7
07 04:50 7.1 59 4.6 -0.4 11 13 1013.1 0 11.3 21.4 27.1 70.4 53.8 181.0
07 04:40 6.7 59 4.49 -0.8 9 9 1013.1 0 11.1 21.3 26.8 69.6 52.7 177.2
07 04:30 7 58 4.5 -0.7 9 9 1012.4 0 11.1 21.2 26.7 69.4 52.6 176.8
07 04:20 7.3 58 4.58 -0.4 9 11 1013.1 0 11.3 21.3 26.9 70.0 53.4 179.7
07 04:10 6.9 58 4.47 -0.8 7 9 1013.1 0 11.0 21.2 26.7 69.3 52.3 175.9
07 04:00 7.2 57 4.48 -0.7 7 9 1012.2 0 11.0 21.2 26.6 69.0 52.2 175.5
07 03:50 7.4 56 4.46 -0.8 7 7 1013.1 0 11.0 21.1 26.5 68.7 51.8 174.4
07 03:40 7.8 55 4.49 -0.7 7 9 1013.1 0 11.0 21.1 26.4 68.7 51.9 174.8
07 03:30 7.9 55 4.52 -0.6 11 13 1011.8 0 11.1 21.0 26.5 68.8 52.2 175.6
07 03:20 8 56 4.63 -0.3 11 13 1013.1 0 11.3 21.2 26.9 69.9 53.5 180.3
07 03:10 7.7 57 4.62 -0.3 13 13 1013.1 0 11.3 21.3 27.0 70.1 53.6 180.6
07 03:00 6.9 57 4.39 -1 9 11 1011.5 0 10.9 21.1 26.3 68.4 51.2 172.2
07 02:50 7 55 4.26 -1.4 9 9 1013.1 0 10.6 20.9 25.9 67.1 49.7 166.7
07 02:40 7.9 55 4.52 -0.6 7 7 1013.1 0 11.1 21.1 26.5 68.9 52.2 175.8
07 02:30 8.3 54 4.55 -0.4 9 11 1011.6 0 11.2 21.0 26.4 68.7 52.3 176.0
07 02:20 8.2 54 4.52 -0.6 11 11 1013.1 0 11.1 21.0 26.4 68.6 52.0 175.2
07 02:10 8.4 54 4.58 -0.4 11 11 1013.1 0 11.2 21.1 26.6 69.1 52.6 177.3
07 02:00 8.2 54 4.52 -0.5 9 11 1011.6 0 11.1 21.0 26.4 68.5 52.0 174.9
07 01:50 8 55 4.55 -0.5 9 11 1013.1 0 11.2 21.1 26.6 69.1 52.5 176.9
07 01:40 7.8 55 4.49 -0.7 9 11 1013.1 0 11.0 21.1 26.4 68.7 51.9 174.8
07 01:30 7.9 54 4.44 -0.8 9 11 1012 0 10.9 20.9 26.2 68.0 51.2 172.3
07 01:20 8 54 4.47 -0.8 9 9 1013.1 0 11.0 21.0 26.3 68.3 51.6 173.5
07 01:10 7.8 53 4.33 -1.2 9 11 1013.1 0 10.7 20.8 25.9 67.1 50.0 168.0
07 01:00 8.1 53 4.41 -0.9 9 9 1012.4 0 10.9 20.9 26.0 67.6 50.8 170.6
07 00:50 8.4 52 4.41 -0.9 7 7 1013.1 0 10.9 20.8 26.0 67.4 50.6 170.1
07 00:40 8.6 52 4.47 -0.7 7 9 1013.1 0 11.0 20.8 26.1 67.8 51.2 172.2
07 00:30 8.6 51 4.38 -0.9 9 11 1012.5 0 10.8 20.7 25.8 66.9 50.1 168.3
07 00:20 8.7 51 4.41 -0.9 7 9 1013.1 0 10.8 20.7 25.9 67.2 50.4 169.5
07 00:10 9.1 50 4.44 -0.8 9 9 1013.1 0 10.9 20.7 25.8 67.1 50.5 169.9
07 00:00 9 49 4.32 -1.1 7 9 1012.5 0 10.6 20.5 25.4 66.0 49.1 165.0
06 23:50 9.3 48 4.32 -1.2 7 7 1013.1 0 10.6 20.5 25.4 65.8 49.0 164.5
06 23:40 9.8 47 4.36 -1 9 9 1013.1 0 10.7 20.4 25.3 65.8 49.1 165.1
06 23:30 9.8 47 4.36 -1 9 11 1012.8 0 10.7 20.4 25.3 65.7 49.1 165.1
06 23:20 9.8 47 4.36 -1 9 9 1013.1 0 10.7 20.4 25.3 65.8 49.1 165.1
06 23:10 9.9 47 4.39 -0.9 9 9 1013.1 0 10.8 20.4 25.4 66.0 49.4 166.2
06 23:00 10 46 4.32 -1.1 7 7 1012.8 0 10.6 20.3 25.1 65.2 48.5 163.0
06 22:50 10 45 4.23 -1.4 7 7 1013.1 0 10.4 20.2 24.8 64.4 47.5 159.4
06 22:40 10.4 44 4.24 -1.4 7 7 1013.1 0 10.4 20.1 24.7 64.2 47.4 159.0
06 22:30 10.8 43 4.25 -1.3 9 9 1012.8 0 10.4 20.0 24.6 63.9 47.2 158.6
06 22:20 11.2 43 4.36 -0.9 9 9 1013.1 0 10.7 20.1 24.9 64.6 48.3 162.3
06 22:10 11.2 43 4.36 -0.9 9 11 1013.1 0 10.7 20.1 24.9 64.6 48.3 162.3
06 22:00 10.9 42 4.18 -1.5 9 9 1012.7 0 10.3 19.9 24.4 63.2 46.4 155.5
06 21:50 10.8 41 4.05 -1.9 9 11 1013.1 0 10.0 19.8 24.0 62.1 45.0 150.5
06 21:40 11.1 39 3.93 -2.4 9 9 1013.1 0 9.8 19.5 23.5 60.7 43.4 145.2
06 21:30 11.6 39 4.05 -1.9 7 7 1012.6 0 10.0 19.6 23.7 61.4 44.5 149.0
06 21:20 11.8 38 4 -2.1 7 7 1013.1 0 9.9 19.5 23.5 60.9 43.8 146.7
06 21:10 12.3 36 3.91 -2.4 6 6 1013.1 0 9.7 19.3 23.1 59.7 42.6 142.3
06 21:00 12.7 35 3.9 -2.3 7 9 1012.4 0 9.7 19.1 22.9 59.2 42.2 141.1
06 20:50 13 34 3.86 -2.5 7 7 1013.1 0 9.6 19.0 22.7 58.7 41.6 139.2
06 20:40 13.3 33 3.81 -2.7 9 9 1013.1 0 9.4 18.9 22.5 58.1 40.9 136.7
06 20:30 14 32 3.86 -2.4 13 17 1011.9 0 9.5 18.8 22.4 57.9 41.1 137.3
06 20:20 14.5 31 3.86 -2.4 13 15 1013.1 0 9.5 18.7 22.3 57.7 40.9 136.7
06 20:10 14.8 31 3.93 -2.2 11 13 1013.1 0 9.7 18.8 22.4 58.1 41.5 138.8
06 20:00 15.3 30 3.92 -2.2 17 24 1011.5 0 9.6 18.6 22.2 57.5 41.1 137.4
06 19:50 15.6 29 3.86 -2.4 19 20 1013.1 0 9.5 18.5 22.0 56.9 40.3 134.9
06 19:40 15.9 28 3.79 -2.6 17 22 1013.1 0 9.3 18.4 21.7 56.1 39.4 131.8
06 19:30 16 28 3.81 -2.5 20 28 1011.1 0 9.4 18.3 21.7 56.0 39.5 132.1
06 19:20 16.3 27 3.75 -2.7 20 26 1013.1 0 9.2 18.2 21.5 55.5 38.8 129.7
06 19:10 16.5 26 3.65 -3.1 19 24 1013.1 0 9.0 18.1 21.1 54.5 37.7 125.7
06 19:00 16.6 25 3.53 -3.5 20 28 1010.3 0 8.8 17.8 20.6 53.2 36.3 120.8
06 18:50 16.7 24 3.41 -4 22 26 1013.1 0 8.5 17.7 20.3 52.3 35.1 116.6
06 18:40 17 23 3.33 -4.3 28 32 1013.1 0 8.3 17.6 20.0 51.5 34.2 113.3
06 18:30 17.4 22 3.26 -4.5 26 35 1009.7 0 8.2 17.3 19.6 50.5 33.2 109.9
06 18:20 17.7 20 3.02 -5.6 22 26 1013.1 0 7.7 17.1 18.9 48.5 30.8 101.3
06 18:10 18 20 3.07 -5.3 32 37 1013.1 0 7.8 17.1 19.0 48.8 31.1 102.7
06 18:00 18.5 17 2.69 -7 32 41 1009.1 0 7.0 16.4 17.6 45.2 27.1 88.6
06 17:50 18.9 16 2.59 -7.5 32 37 1013.1 0 6.8 16.3 17.4 44.5 26.1 85.1
06 17:40 19.3 16 2.65 -7.2 26 32 1013.1 0 6.9 16.3 17.4 44.7 26.6 86.7
06 17:30 19.5 17 2.85 -6.2 30 48 1008.4 0 7.3 16.4 17.9 45.9 28.3 92.9
06 17:20 19.7 17 2.89 -6 26 32 1013.1 0 7.4 16.6 18.1 46.4 28.8 94.5
06 17:10 19.9 17 2.92 -5.9 30 35 1013.1 0 7.4 16.6 18.1 46.5 29.0 95.3
06 17:00 20.1 16 2.78 -6.5 32 44 1007.8 0 7.1 16.2 17.5 45.0 27.4 89.9
06 16:50 20.2 18 3.15 -4.9 32 41 1013.1 0 7.9 16.8 18.7 48.1 31.1 102.9
06 16:40 20.2 17 2.97 -5.6 33 39 1013.1 0 7.5 16.6 18.2 46.7 29.4 96.7
06 16:30 20.2 20 3.5 -3.4 33 46 1007.7 0 8.6 17.0 19.6 50.6 34.4 114.4
06 16:20 20.3 20 3.52 -3.4 35 44 1013.1 0 8.7 17.2 19.8 51.0 34.7 115.6
06 16:10 21 18 3.3 -4.2 32 35 1013.1 0 8.2 16.8 19.0 48.9 32.3 107.0
06 16:00 21 20 3.66 -2.8 33 46 1007.3 0 8.9 17.1 19.9 51.3 35.6 118.9
06 15:50 21.3 20 3.73 -2.6 35 46 1013.1 0 9.1 17.3 20.2 52.1 36.4 121.5
06 15:40 21 19 3.48 -3.5 37 41 1013.1 0 8.6 17.0 19.5 50.3 34.0 113.2
06 15:30 21.5 19 3.58 -3.1 35 50 1007 0 8.7 16.9 19.5 50.4 34.6 115.4

Last Refresh: 07-Aug-2020 08:21:12

Most of the information presented on this site is sourced from the Bureau of Meteorology.  Copyright in all material sourced from the Bureau of Meteorology resides with the Commonwealth of Australia.